Aérodrome :
LOGIN :

S'inscrire | Disclaimer

   EN    FR    IT 

 










Légende :    VFR   VFR Marginal   IFR   IFR Intensif   IFR Très Intensif
Visi : 
Plafond : 
>= 8 km
>= 3000ft
5 à 8 km
1000 à 3000 ft
1500m à 5 km
500 à 1000 ft
800 à 1500m
200 à 500 ft
< 800m
< 200 ft
Symboles :   Orages  Brouillard  Fortes neiges  Fortes précipitations  Vent > 20 kt
SIGMETs :   Divers  Orages  Givrage  Turbulence  Onde Orograph.  Cendres Volcan.






- Altitude de l'aérodrome : 202 ft
- Code IATA : LGW


EGKK - London Gatwick

DERNIER METAR :
  • 091450Z 32014KT 9999 SCT042 09/00 Q1017

METARs EXPIRÉS :
  • 091420Z 31017KT 9999 FEW040 09/00 Q1016
  • 091350Z 32016KT 9999 FEW038 SCT047 09/01 Q1015
  • 091320Z 33015KT 9999 SCT039 10/01 Q1014
  • 091250Z 32018KT 9999 SCT039 10/01 Q1013
  • 091220Z 32018KT 9999 SCT042 10/01 Q1012

TAF TAF EGKK
Valide du 09 à 12h jusqu'au 10 à 18h UTC


091054Z 0912/1018 31015G25KT 9999 SCT025
BECMG 0912/0915 32012KT
BECMG 0918/0921 26006KT
PROB30 0922/1005 8000
BECMG 1006/1009 19015G25KT
TEMPO 1010/1015 20020G35KT
TEMPO 1013/1018 7000 RA BKN014
BECMG 1015/1018 20020G35KT
PROB30
TEMPO 1017/1018 4000 +RA



MET'MAP, la Météo Aéronautique d'un coup d'oeil ! - Copyright ORBIFLY Décembre 2007 - Disclaimer

ORBIFLY MET'MAP TEAM :

Programmation & Développement : Alexandra Zaïnal
Sur une idée originale de : Baudouin d'Aumeries
Assistance à la programmation : Marc-Olivier Méhu
Soutien technique & logistique : Manuel Goepfert

Contact : metmap@orbifly.com




SOURCES & CREDITS :

   NOAA